createdAt,value
2019-01-06T00:01:57.213Z,22.77
2019-01-06T00:04:45.038Z,21.27
2019-01-06T00:07:52.071Z,22.03
2019-01-06T00:10:39.994Z,21.77
2019-01-06T00:13:47.026Z,23.90
2019-01-06T00:16:34.925Z,22.70
2019-01-06T00:19:42.006Z,22.13
2019-01-06T00:22:41.290Z,23.00
2019-01-06T00:25:29.237Z,22.17
2019-01-06T00:28:36.229Z,22.77
2019-01-06T00:31:24.169Z,23.10
2019-01-06T00:34:31.252Z,22.40
2019-01-06T00:37:38.289Z,21.87
2019-01-06T00:40:26.283Z,21.43
2019-01-06T00:43:33.321Z,21.70
2019-01-06T00:46:40.323Z,20.57
2019-01-06T00:49:28.286Z,21.20
2019-01-06T00:55:29.270Z,21.90
2019-01-06T00:58:17.212Z,22.33
2019-01-06T01:01:05.147Z,20.60
2019-01-06T01:04:12.139Z,21.50
2019-01-06T01:07:00.383Z,20.80
2019-01-06T01:10:11.159Z,20.80
2019-01-06T01:13:18.188Z,22.30
2019-01-06T01:16:25.199Z,21.63
2019-01-06T01:19:13.215Z,20.43
2019-01-06T01:22:20.203Z,21.30
2019-01-06T01:25:27.265Z,20.80
2019-01-06T01:28:15.156Z,21.50
2019-01-06T01:31:22.243Z,21.00
2019-01-06T01:34:20.279Z,21.80
2019-01-06T01:37:08.139Z,20.50
2019-01-06T01:40:16.878Z,21.33
2019-01-06T01:43:07.437Z,22.03
2019-01-06T01:46:15.956Z,24.03
2019-01-06T01:49:03.884Z,24.67
2019-01-06T01:52:10.879Z,21.30
2019-01-06T01:55:17.909Z,22.70
2019-01-06T01:58:19.732Z,27.70
2019-01-06T02:01:26.687Z,27.17
2019-01-06T02:04:33.690Z,22.70
2019-01-06T02:07:40.733Z,23.20
2019-01-06T02:10:47.742Z,26.63
2019-01-06T02:13:54.790Z,26.27
2019-01-06T02:17:01.816Z,25.00
2019-01-06T02:20:08.865Z,24.00
2019-01-06T02:23:15.849Z,20.73
2019-01-06T02:26:22.877Z,22.17
2019-01-06T02:29:29.954Z,21.90
2019-01-06T02:32:37.071Z,22.30
2019-01-06T02:35:25.157Z,22.90
2019-01-06T02:38:32.180Z,21.07
2019-01-06T02:41:39.171Z,22.37
2019-01-06T02:44:46.204Z,21.50
2019-01-06T02:47:34.088Z,22.00
2019-01-06T02:50:41.122Z,22.33
2019-01-06T02:53:24.256Z,21.47
2019-01-06T02:56:12.077Z,20.83
2019-01-06T02:59:00.019Z,21.90
2019-01-06T03:01:47.917Z,22.80
2019-01-06T03:04:49.407Z,22.03
2019-01-06T03:07:56.457Z,22.03
2019-01-06T03:11:03.784Z,21.87
2019-01-06T03:14:10.818Z,22.13
2019-01-06T03:17:17.818Z,24.83
2019-01-06T03:20:25.171Z,23.90
2019-01-06T03:23:32.226Z,22.73
2019-01-06T03:26:40.742Z,20.83
2019-01-06T03:29:47.738Z,20.37
2019-01-06T03:32:54.797Z,22.00
2019-01-06T03:36:01.780Z,24.30
2019-01-06T03:39:08.808Z,24.40
2019-01-06T03:42:15.842Z,23.70
2019-01-06T03:45:22.879Z,22.20
2019-01-06T03:48:27.867Z,21.77
2019-01-06T03:51:16.081Z,19.83
2019-01-06T03:54:04.021Z,19.60
2019-01-06T03:56:51.915Z,19.23
2019-01-06T04:00:00.908Z,22.00
2019-01-06T04:03:07.698Z,20.13
2019-01-06T04:06:16.184Z,22.97
2019-01-06T04:09:04.127Z,20.67
2019-01-06T04:11:52.095Z,20.50
2019-01-06T04:14:59.125Z,20.27
2019-01-06T04:18:06.158Z,19.00
2019-01-06T04:21:13.163Z,21.00
2019-01-06T04:24:20.187Z,22.70
2019-01-06T04:27:27.252Z,22.27
2019-01-06T04:30:15.262Z,22.70
2019-01-06T04:33:22.259Z,21.80
2019-01-06T04:36:29.663Z,22.73
2019-01-06T04:39:36.716Z,24.17
2019-01-06T04:42:43.706Z,19.83
2019-01-06T04:45:50.769Z,22.97
2019-01-06T04:48:57.758Z,23.13
2019-01-06T04:52:04.789Z,23.07
2019-01-06T04:55:01.420Z,24.10
2019-01-06T04:57:49.280Z,20.43
2019-01-06T05:00:37.255Z,21.93
2019-01-06T05:03:25.529Z,20.20
2019-01-06T05:06:32.554Z,27.40
2019-01-06T05:09:39.548Z,24.47
2019-01-06T05:12:27.406Z,24.83
2019-01-06T05:15:15.226Z,22.10
2019-01-06T05:18:22.574Z,26.63
2019-01-06T05:21:29.580Z,26.00
2019-01-06T05:24:36.599Z,22.97
2019-01-06T05:27:24.512Z,25.77
2019-01-06T05:30:12.439Z,21.20
2019-01-06T05:33:00.271Z,24.13
2019-01-06T05:36:07.309Z,24.30
2019-01-06T05:39:14.306Z,20.47
2019-01-06T05:42:02.258Z,24.17
2019-01-06T05:48:02.877Z,27.47
2019-01-06T05:51:09.905Z,26.27
2019-01-06T05:54:17.227Z,29.80
2019-01-06T05:57:05.579Z,25.90
2019-01-06T06:00:12.586Z,21.53
2019-01-06T06:03:00.529Z,22.10
2019-01-06T06:05:48.426Z,22.50
2019-01-06T06:08:55.480Z,22.33
2019-01-06T06:12:02.492Z,24.17
2019-01-06T06:14:50.744Z,24.20
2019-01-06T06:18:05.162Z,21.17
2019-01-06T06:21:06.480Z,23.63
2019-01-06T06:24:13.517Z,23.27
2019-01-06T06:27:20.893Z,23.83
2019-01-06T06:30:27.924Z,23.00
2019-01-06T06:33:15.823Z,24.03
2019-01-06T06:36:22.871Z,25.10
2019-01-06T06:39:29.937Z,21.63
2019-01-06T06:42:18.098Z,24.70
2019-01-06T06:45:06.030Z,25.67
2019-01-06T06:48:13.014Z,25.77
2019-01-06T06:51:33.622Z,24.07
2019-01-06T06:54:21.790Z,24.90
2019-01-06T06:57:28.953Z,23.60
2019-01-06T07:00:55.052Z,23.87
2019-01-06T07:04:04.091Z,24.27
2019-01-06T07:07:11.084Z,24.63
2019-01-06T07:10:18.166Z,25.60
2019-01-06T07:13:21.623Z,25.80
2019-01-06T07:16:28.665Z,24.67
2019-01-06T07:19:36.002Z,25.63
2019-01-06T07:22:40.698Z,25.73
2019-01-06T07:25:47.735Z,26.03
2019-01-06T07:28:54.793Z,25.53
2019-01-06T07:32:01.822Z,25.20
2019-01-06T07:35:08.826Z,24.80
2019-01-06T07:38:15.891Z,26.77
2019-01-06T07:41:24.354Z,29.73
2019-01-06T07:44:31.391Z,25.43
2019-01-06T07:47:38.380Z,26.20
2019-01-06T07:50:45.643Z,24.60
2019-01-06T07:53:33.984Z,23.90
2019-01-06T07:59:35.782Z,23.93
2019-01-06T08:02:42.769Z,26.00
2019-01-06T08:05:50.031Z,25.93
2019-01-06T08:08:57.221Z,25.17
2019-01-06T08:11:45.078Z,24.90
2019-01-06T08:14:52.120Z,25.50
2019-01-06T08:17:59.246Z,25.87
2019-01-06T08:20:47.264Z,25.87
2019-01-06T08:23:54.577Z,24.30
2019-01-06T08:27:01.567Z,24.30
2019-01-06T08:30:08.603Z,23.90
2019-01-06T08:32:56.516Z,23.23
2019-01-06T08:36:03.561Z,23.50
2019-01-06T08:39:10.623Z,26.20
2019-01-06T08:41:58.863Z,25.90
2019-01-06T08:45:05.896Z,26.77
2019-01-06T08:48:12.885Z,24.50
2019-01-06T08:51:00.746Z,23.83
2019-01-06T08:54:07.807Z,29.77
2019-01-06T08:56:55.718Z,43.20
2019-01-06T09:00:02.818Z,70.10
2019-01-06T09:03:10.106Z,54.53
2019-01-06T09:06:17.190Z,44.50
2019-01-06T09:09:05.524Z,49.10
2019-01-06T09:12:12.556Z,31.17
2019-01-06T09:15:19.914Z,28.13
2019-01-06T09:18:27.063Z,29.63
2019-01-06T09:21:35.708Z,26.83
2019-01-06T09:24:42.741Z,25.43
2019-01-06T09:27:49.829Z,28.33
2019-01-06T09:30:58.345Z,29.10
2019-01-06T09:34:05.466Z,26.83
2019-01-06T09:37:13.959Z,26.10
2019-01-06T09:40:21.000Z,27.23
2019-01-06T09:43:27.989Z,26.90
2019-01-06T09:46:35.036Z,30.80
2019-01-06T09:49:42.022Z,30.37
2019-01-06T09:52:49.065Z,36.20
2019-01-06T09:55:36.950Z,35.87
2019-01-06T09:58:25.984Z,35.50
2019-01-06T10:01:32.973Z,39.87
2019-01-06T10:04:20.897Z,28.70
2019-01-06T10:07:27.899Z,29.80
2019-01-06T10:10:37.614Z,25.50
2019-01-06T10:13:44.640Z,25.03
2019-01-06T10:19:55.885Z,25.70
2019-01-06T10:25:49.679Z,25.57
2019-01-06T10:28:37.924Z,24.83
2019-01-06T10:31:44.973Z,25.30
2019-01-06T10:34:32.879Z,25.13
2019-01-06T10:37:39.923Z,24.10
2019-01-06T10:40:17.886Z,27.43
2019-01-06T10:43:24.915Z,25.63
2019-01-06T10:46:31.959Z,27.10
2019-01-06T10:49:19.853Z,24.17
2019-01-06T10:52:28.904Z,26.67
2019-01-06T10:55:28.166Z,29.20
2019-01-06T10:58:16.084Z,29.53
2019-01-06T11:01:03.288Z,27.03
2019-01-06T11:03:51.313Z,28.33
2019-01-06T11:06:58.305Z,28.40
2019-01-06T11:10:05.349Z,29.50
2019-01-06T11:13:12.343Z,27.27
2019-01-06T11:16:19.381Z,29.00
2019-01-06T11:19:07.274Z,31.67
2019-01-06T11:21:55.525Z,30.33
2019-01-06T11:25:02.522Z,28.27
2019-01-06T11:28:05.759Z,31.30
2019-01-06T11:31:12.783Z,27.97
2019-01-06T11:34:00.753Z,28.33
2019-01-06T11:36:48.673Z,30.07
2019-01-06T11:39:55.705Z,28.17
2019-01-06T11:42:43.714Z,29.83
2019-01-06T11:45:31.676Z,28.40
2019-01-06T11:48:19.609Z,29.00
2019-01-06T11:51:26.626Z,29.47
2019-01-06T11:54:33.697Z,29.10
2019-01-06T11:57:40.690Z,28.23
2019-01-06T12:00:28.726Z,29.70
2019-01-06T12:03:35.760Z,29.10
2019-01-06T12:06:23.719Z,29.17
2019-01-06T12:09:30.741Z,27.77
2019-01-06T12:12:19.041Z,27.80
2019-01-06T12:15:26.030Z,27.10
2019-01-06T12:18:13.981Z,27.30
2019-01-06T12:21:14.297Z,27.80
2019-01-06T12:24:21.344Z,25.60
2019-01-06T12:27:28.372Z,26.13
2019-01-06T12:30:16.380Z,27.10
2019-01-06T12:33:23.434Z,28.73
2019-01-06T12:36:30.421Z,26.10
2019-01-06T12:39:37.773Z,27.33
2019-01-06T12:42:25.664Z,25.77
2019-01-06T12:48:05.444Z,24.97
2019-01-06T12:51:12.456Z,24.97
2019-01-06T12:54:19.536Z,24.63
2019-01-06T13:00:38.021Z,23.63
2019-01-06T13:03:45.065Z,21.90
2019-01-06T13:06:52.154Z,21.43
2019-01-06T13:13:23.886Z,19.90
2019-01-06T13:16:30.809Z,19.30
2019-01-06T13:19:19.661Z,19.10
2019-01-06T13:22:26.652Z,19.73
2019-01-06T13:25:33.710Z,19.73
2019-01-06T13:34:40.980Z,19.53
2019-01-06T13:37:48.010Z,19.10
2019-01-06T13:41:02.833Z,19.40
2019-01-06T13:43:57.746Z,19.10
2019-01-06T13:46:54.638Z,19.10
2019-01-06T13:49:42.527Z,19.10
2019-01-06T13:52:49.554Z,19.27
2019-01-06T13:55:56.579Z,19.50
2019-01-06T13:58:44.403Z,19.27
2019-01-06T14:01:51.433Z,19.60
2019-01-06T14:04:58.421Z,19.43
2019-01-06T14:08:05.455Z,20.30
2019-01-06T14:10:53.422Z,19.80
2019-01-06T14:14:00.882Z,19.73
2019-01-06T14:16:49.109Z,20.47
2019-01-06T14:19:56.134Z,20.47
2019-01-06T14:23:03.136Z,19.87
2019-01-06T14:25:51.077Z,19.90
2019-01-06T14:28:58.143Z,19.97
2019-01-06T14:31:46.013Z,19.83
2019-01-06T14:34:25.121Z,19.87
2019-01-06T14:37:13.369Z,19.53
2019-01-06T14:40:20.354Z,19.73
2019-01-06T14:43:08.338Z,18.60
2019-01-06T14:45:57.101Z,19.83
2019-01-06T14:49:04.114Z,20.13
2019-01-06T14:52:11.145Z,18.90
2019-01-06T14:58:21.762Z,20.50
2019-01-06T15:04:00.934Z,18.57
2019-01-06T15:06:48.744Z,19.83
2019-01-06T15:09:37.986Z,20.47
2019-01-06T15:12:45.021Z,19.80
2019-01-06T15:15:53.547Z,20.47
2019-01-06T15:19:00.608Z,20.20
2019-01-06T15:22:07.598Z,20.73
2019-01-06T15:25:14.690Z,20.63
2019-01-06T15:28:21.691Z,20.90
2019-01-06T15:31:23.001Z,21.30
2019-01-06T15:34:30.604Z,20.70
2019-01-06T15:37:37.764Z,21.00
2019-01-06T15:40:25.961Z,21.90
2019-01-06T15:43:32.988Z,21.67
2019-01-06T15:46:39.990Z,21.60
2019-01-06T15:49:27.855Z,21.07
2019-01-06T15:52:34.931Z,22.00
2019-01-06T15:55:41.982Z,22.20
2019-01-06T16:01:39.060Z,23.40
2019-01-06T16:04:46.139Z,21.03
2019-01-06T16:07:53.217Z,21.37
2019-01-06T16:11:00.248Z,22.43
2019-01-06T16:14:07.269Z,22.17
2019-01-06T16:17:14.350Z,22.90
2019-01-06T16:20:21.356Z,22.70
2019-01-06T16:23:27.962Z,23.80
2019-01-06T16:26:34.970Z,21.80
2019-01-06T16:29:41.994Z,21.77
2019-01-06T16:32:45.011Z,21.70
2019-01-06T16:35:52.074Z,23.50
2019-01-06T16:38:39.968Z,21.27
2019-01-06T16:41:47.001Z,21.60
2019-01-06T16:44:34.921Z,20.83
2019-01-06T16:47:22.850Z,21.27
2019-01-06T16:50:29.857Z,20.93
2019-01-06T16:53:17.812Z,20.77
2019-01-06T16:56:05.693Z,20.80
2019-01-06T16:59:12.674Z,20.37
2019-01-06T17:02:19.734Z,20.40
2019-01-06T17:05:06.951Z,20.03
2019-01-06T17:07:54.767Z,20.40
2019-01-06T17:11:01.813Z,20.40
2019-01-06T17:14:08.836Z,19.80
2019-01-06T17:17:15.871Z,19.43
2019-01-06T17:20:03.764Z,20.70
2019-01-06T17:22:51.699Z,20.53
2019-01-06T17:25:39.598Z,20.80
2019-01-06T17:28:46.635Z,19.73
2019-01-06T17:31:53.655Z,21.27
2019-01-06T17:35:00.684Z,21.00
2019-01-06T17:37:48.613Z,21.00
2019-01-06T17:40:55.606Z,21.40
2019-01-06T17:43:55.450Z,22.43
2019-01-06T17:49:51.812Z,23.80
2019-01-06T17:56:08.088Z,21.20
2019-01-06T17:59:15.180Z,22.90
2019-01-06T18:02:03.443Z,23.93
2019-01-06T18:04:51.382Z,24.47
2019-01-06T18:07:58.749Z,22.47
2019-01-06T18:11:05.738Z,23.90
2019-01-06T18:14:12.809Z,23.70
2019-01-06T18:20:12.233Z,24.33
2019-01-06T18:23:19.216Z,23.87
2019-01-06T18:26:26.843Z,23.20
2019-01-06T18:29:14.673Z,25.10
2019-01-06T18:32:21.696Z,22.77
2019-01-06T18:35:28.730Z,23.00
2019-01-06T18:38:35.725Z,23.30
2019-01-06T18:41:36.381Z,22.30
2019-01-06T18:44:24.396Z,24.20
2019-01-06T18:50:55.869Z,24.77
2019-01-06T18:56:52.469Z,23.93
2019-01-06T18:59:59.463Z,22.90
2019-01-06T19:03:01.336Z,23.33
2019-01-06T19:05:49.221Z,24.70
2019-01-06T19:08:37.087Z,23.17
2019-01-06T19:11:44.073Z,24.33
2019-01-06T19:14:53.558Z,23.77
2019-01-06T19:17:41.738Z,24.63
2019-01-06T19:20:48.773Z,22.07
2019-01-06T19:23:55.782Z,24.13
2019-01-06T19:27:02.817Z,22.20
2019-01-06T19:33:34.544Z,23.03
2019-01-06T19:36:41.547Z,24.83
2019-01-06T19:39:29.547Z,23.30
2019-01-06T19:42:36.610Z,24.77
2019-01-06T19:45:45.289Z,23.80
2019-01-06T19:48:52.325Z,24.93
2019-01-06T19:51:40.260Z,24.67
2019-01-06T19:54:47.291Z,24.30
2019-01-06T19:57:54.286Z,25.77
2019-01-06T20:00:42.204Z,24.57
2019-01-06T20:03:49.213Z,24.27
2019-01-06T20:06:56.211Z,26.67
2019-01-06T20:09:44.157Z,25.50
2019-01-06T20:12:51.142Z,26.37
2019-01-06T20:15:58.180Z,24.97
2019-01-06T20:19:05.233Z,24.10
2019-01-06T20:22:12.268Z,25.03
2019-01-06T20:25:19.266Z,25.70
2019-01-06T20:28:26.304Z,25.47
2019-01-06T20:31:33.318Z,24.47
2019-01-06T20:34:21.439Z,24.93
2019-01-06T20:37:09.385Z,24.90
2019-01-06T20:40:16.373Z,25.03
2019-01-06T20:43:23.392Z,25.67
2019-01-06T20:46:11.335Z,24.00
2019-01-06T20:51:48.573Z,24.50
2019-01-06T20:58:06.689Z,23.47
2019-01-06T21:01:13.718Z,23.27
2019-01-06T21:04:20.779Z,22.00
2019-01-06T21:07:27.838Z,24.43
2019-01-06T21:10:15.652Z,22.40
2019-01-06T21:13:22.686Z,22.67
2019-01-06T21:16:29.713Z,22.73
2019-01-06T21:19:17.991Z,21.60
2019-01-06T21:22:25.005Z,23.47
2019-01-06T21:25:21.742Z,23.03
2019-01-06T21:28:40.195Z,22.60
2019-01-06T21:31:47.214Z,22.03
2019-01-06T21:34:54.210Z,22.27
2019-01-06T21:37:42.143Z,23.10
2019-01-06T21:40:49.154Z,22.73
2019-01-06T21:43:56.179Z,23.90
2019-01-06T21:47:03.222Z,23.43
2019-01-06T21:49:51.036Z,23.17
2019-01-06T21:56:09.259Z,23.10
2019-01-06T21:59:16.176Z,23.47
2019-01-06T22:02:04.037Z,22.80
2019-01-06T22:04:52.028Z,23.60
2019-01-06T22:07:40.289Z,24.03
2019-01-06T22:10:28.257Z,22.90
2019-01-06T22:13:35.321Z,24.17
2019-01-06T22:16:23.212Z,22.40
2019-01-06T22:19:30.242Z,23.70
2019-01-06T22:22:35.566Z,23.30
2019-01-06T22:25:42.593Z,22.77
2019-01-06T22:28:49.620Z,23.57
2019-01-06T22:35:08.060Z,22.80
2019-01-06T22:37:55.860Z,22.87
2019-01-06T22:41:02.901Z,22.37
2019-01-06T22:44:09.894Z,23.00
2019-01-06T22:46:57.843Z,23.70
2019-01-06T22:49:45.758Z,22.80
2019-01-06T22:52:37.071Z,22.33
2019-01-06T22:55:42.399Z,23.90
2019-01-06T22:58:30.331Z,24.53
2019-01-06T23:01:18.361Z,23.90
2019-01-06T23:07:23.412Z,24.23
2019-01-06T23:10:24.249Z,24.07
2019-01-06T23:13:31.305Z,23.90
2019-01-06T23:16:19.506Z,25.70
2019-01-06T23:19:26.536Z,24.43
2019-01-06T23:22:33.522Z,24.90
2019-01-06T23:25:40.563Z,26.17
2019-01-06T23:28:47.545Z,24.33
2019-01-06T23:31:35.484Z,24.47
2019-01-06T23:34:23.410Z,24.07
2019-01-06T23:37:11.228Z,25.57
2019-01-06T23:40:18.268Z,25.33
2019-01-06T23:42:58.126Z,22.83
2019-01-06T23:46:05.121Z,23.97
2019-01-06T23:49:12.147Z,23.30
2019-01-06T23:52:00.072Z,24.03
2019-01-06T23:54:47.885Z,23.10
2019-01-06T23:57:54.920Z,24.20
